createdAt,value
2018-08-10T00:00:11.763Z,45.79
2018-08-10T00:02:39.489Z,46.71
2018-08-10T00:05:07.880Z,46.37
2018-08-10T00:07:35.750Z,45.86
2018-08-10T00:10:03.656Z,46.71
2018-08-10T00:12:31.405Z,46.04
2018-08-10T00:14:59.328Z,46.79
2018-08-10T00:17:27.108Z,46.02
2018-08-10T00:19:54.853Z,46.02
2018-08-10T00:22:22.705Z,46.68
2018-08-10T00:24:50.469Z,46.85
2018-08-10T00:27:18.171Z,46.62
2018-08-10T00:29:45.912Z,46.74
2018-08-10T00:32:13.698Z,46.99
2018-08-10T00:34:41.405Z,46.88
2018-08-10T00:37:09.237Z,46.27
2018-08-10T00:39:36.998Z,46.10
2018-08-10T00:42:04.721Z,46.00
2018-08-10T00:44:32.425Z,46.27
2018-08-10T00:47:00.306Z,46.87
2018-08-10T00:49:28.032Z,46.28
2018-08-10T00:51:55.774Z,46.06
2018-08-10T00:54:23.532Z,46.84
2018-08-10T00:56:51.261Z,46.94
2018-08-10T00:59:19.061Z,46.86
2018-08-10T01:01:46.764Z,46.01
2018-08-10T01:04:14.524Z,46.30
2018-08-10T01:06:42.289Z,46.86
2018-08-10T01:09:11.489Z,45.99
2018-08-10T01:11:39.229Z,46.11
2018-08-10T01:14:07.551Z,45.79
2018-08-10T01:16:35.273Z,46.39
2018-08-10T01:19:03.680Z,46.04
2018-08-10T01:21:31.371Z,46.12
2018-08-10T01:23:59.251Z,46.40
2018-08-10T01:26:27.005Z,46.57
2018-08-10T01:28:54.959Z,46.85
2018-08-10T01:31:22.580Z,46.49
2018-08-10T01:33:50.361Z,46.24
2018-08-10T01:36:17.996Z,46.89
2018-08-10T01:38:45.670Z,47.18
2018-08-10T01:41:13.393Z,47.07
2018-08-10T01:43:41.137Z,47.19
2018-08-10T01:46:08.801Z,47.07
2018-08-10T01:48:36.520Z,46.55
2018-08-10T01:51:04.284Z,46.30
2018-08-10T01:53:31.995Z,46.53
2018-08-10T01:55:59.735Z,46.54
2018-08-10T01:58:27.498Z,47.07
2018-08-10T02:00:55.176Z,47.08
2018-08-10T02:03:22.858Z,46.52
2018-08-10T02:05:50.569Z,46.42
2018-08-10T02:08:18.245Z,47.18
2018-08-10T02:10:46.045Z,46.76
2018-08-10T02:13:13.797Z,47.95
2018-08-10T02:15:41.557Z,46.59
2018-08-10T02:18:09.516Z,46.25
2018-08-10T02:20:37.215Z,46.81
2018-08-10T02:23:05.036Z,46.55
2018-08-10T02:25:32.727Z,47.35
2018-08-10T02:28:00.430Z,47.05
2018-08-10T02:30:28.123Z,47.37
2018-08-10T02:32:55.912Z,47.29
2018-08-10T02:35:23.648Z,47.09
2018-08-10T02:37:51.367Z,47.37
2018-08-10T02:40:21.782Z,46.53
2018-08-10T02:42:50.515Z,46.49
2018-08-10T02:45:18.677Z,47.46
2018-08-10T02:47:47.086Z,46.84
2018-08-10T02:50:14.878Z,47.32
2018-08-10T02:52:42.649Z,46.44
2018-08-10T02:55:10.777Z,47.27
2018-08-10T02:57:38.889Z,47.40
2018-08-10T03:00:07.611Z,47.39
2018-08-10T03:02:35.431Z,47.96
2018-08-10T03:05:03.197Z,46.70
2018-08-10T03:07:30.934Z,47.09
2018-08-10T03:09:58.770Z,46.70
2018-08-10T03:12:26.455Z,47.45
2018-08-10T03:14:54.201Z,46.84
2018-08-10T03:17:21.927Z,46.84
2018-08-10T03:19:49.758Z,47.28
2018-08-10T03:22:17.591Z,47.53
2018-08-10T03:24:45.282Z,50.25
2018-08-10T03:27:14.053Z,52.36
2018-08-10T03:29:41.723Z,52.94
2018-08-10T03:32:09.445Z,54.23
2018-08-10T03:34:37.083Z,54.70
2018-08-10T03:37:04.873Z,55.05
2018-08-10T03:39:32.577Z,55.88
2018-08-10T03:42:00.281Z,56.40
2018-08-10T03:44:27.968Z,56.32
2018-08-10T03:46:55.756Z,56.95
2018-08-10T03:49:23.493Z,54.78
2018-08-10T03:51:51.265Z,53.25
2018-08-10T03:54:48.305Z,53.25
2018-08-10T03:57:16.019Z,52.56
2018-08-10T03:59:43.787Z,52.01
2018-08-10T04:02:11.523Z,51.30
2018-08-10T04:04:39.259Z,51.46
2018-08-10T04:07:07.078Z,50.61
2018-08-10T04:09:34.874Z,49.62
2018-08-10T04:12:02.541Z,49.23
2018-08-10T04:14:30.186Z,49.30
2018-08-10T04:16:57.825Z,49.23
2018-08-10T04:19:25.463Z,48.89
2018-08-10T04:21:53.134Z,47.72
2018-08-10T04:24:20.784Z,48.09
2018-08-10T04:26:48.437Z,47.46
2018-08-10T04:29:16.107Z,47.02
2018-08-10T04:31:43.777Z,46.37
2018-08-10T04:34:11.434Z,46.64
2018-08-10T04:36:39.082Z,46.81
2018-08-10T04:39:08.496Z,46.83
2018-08-10T04:41:36.177Z,47.05
2018-08-10T04:44:03.850Z,46.16
2018-08-10T04:46:31.512Z,46.67
2018-08-10T04:48:59.154Z,46.89
2018-08-10T04:51:26.798Z,46.39
2018-08-10T04:53:54.438Z,46.35
2018-08-10T04:56:22.108Z,46.14
2018-08-10T04:58:49.746Z,47.02
2018-08-10T05:01:17.373Z,46.18
2018-08-10T05:03:45.093Z,45.99
2018-08-10T05:06:12.726Z,46.62
2018-08-10T05:08:40.359Z,45.50
2018-08-10T05:11:07.984Z,46.12
2018-08-10T05:13:35.649Z,45.67
2018-08-10T05:16:03.322Z,44.96
2018-08-10T05:18:30.974Z,44.72
2018-08-10T05:20:58.611Z,44.59
2018-08-10T05:23:26.289Z,44.62
2018-08-10T05:25:54.003Z,44.75
2018-08-10T05:30:55.679Z,43.64
2018-08-10T05:33:23.319Z,44.38
2018-08-10T05:35:51.104Z,44.26
2018-08-10T05:38:18.742Z,44.30
2018-08-10T05:40:46.383Z,44.06
2018-08-10T05:43:14.050Z,44.12
2018-08-10T05:45:41.710Z,44.00
2018-08-10T05:48:09.471Z,43.90
2018-08-10T05:50:37.050Z,43.83
2018-08-10T05:53:04.731Z,44.26
2018-08-10T05:55:32.358Z,44.29
2018-08-10T05:58:00.026Z,44.31
2018-08-10T06:00:27.670Z,43.47
2018-08-10T06:02:55.310Z,44.36
2018-08-10T06:05:22.951Z,44.00
2018-08-10T06:07:50.589Z,43.62
2018-08-10T06:10:18.230Z,43.00
2018-08-10T06:12:45.883Z,43.58
2018-08-10T06:15:13.509Z,43.15
2018-08-10T06:17:41.505Z,42.17
2018-08-10T06:20:10.386Z,42.22
2018-08-10T06:22:38.149Z,42.85
2018-08-10T06:25:06.098Z,42.08
2018-08-10T06:27:33.752Z,43.08
2018-08-10T06:30:01.392Z,42.11
2018-08-10T06:32:29.044Z,41.83
2018-08-10T06:34:56.748Z,42.58
2018-08-10T06:37:24.382Z,42.67
2018-08-10T06:39:52.205Z,42.54
2018-08-10T06:42:19.724Z,42.63
2018-08-10T06:44:47.418Z,42.60
2018-08-10T06:47:15.019Z,41.86
2018-08-10T06:49:42.657Z,42.00
2018-08-10T06:52:10.305Z,42.87
2018-08-10T06:54:37.954Z,42.81
2018-08-10T06:57:05.923Z,42.66
2018-08-10T06:59:33.530Z,42.25
2018-08-10T07:02:01.265Z,42.14
2018-08-10T07:04:29.419Z,42.35
2018-08-10T07:06:57.271Z,42.98
2018-08-10T07:09:24.897Z,43.00
2018-08-10T07:11:52.543Z,43.08
2018-08-10T07:14:20.192Z,42.79
2018-08-10T07:16:47.813Z,42.63
2018-08-10T07:19:15.485Z,43.29
2018-08-10T07:21:43.101Z,44.06
2018-08-10T07:24:10.744Z,44.68
2018-08-10T07:26:38.365Z,44.31
2018-08-10T07:29:05.985Z,45.33
2018-08-10T07:31:33.618Z,44.47
2018-08-10T07:34:01.279Z,43.96
2018-08-10T07:36:28.962Z,44.33
2018-08-10T07:38:56.575Z,45.37
2018-08-10T07:41:24.217Z,45.14
2018-08-10T07:43:51.910Z,47.19
2018-08-10T07:46:19.639Z,46.67
2018-08-10T07:48:48.257Z,46.32
2018-08-10T07:51:17.062Z,44.63
2018-08-10T07:53:44.768Z,42.66
2018-08-10T07:56:12.453Z,42.53
2018-08-10T07:58:40.133Z,43.54
2018-08-10T08:01:07.769Z,43.54
2018-08-10T08:03:35.445Z,42.74
2018-08-10T08:06:03.090Z,43.00
2018-08-10T08:08:30.756Z,43.67
2018-08-10T08:10:58.397Z,43.21
2018-08-10T08:13:26.035Z,43.46
2018-08-10T08:15:53.666Z,42.96
2018-08-10T08:18:21.288Z,42.95
2018-08-10T08:20:54.557Z,42.99
2018-08-10T08:23:22.206Z,43.62
2018-08-10T08:25:49.869Z,42.99
2018-08-10T08:28:17.561Z,43.21
2018-08-10T08:30:45.234Z,44.19
2018-08-10T08:33:12.878Z,43.29
2018-08-10T08:35:40.527Z,43.79
2018-08-10T08:38:13.838Z,44.13
2018-08-10T08:40:41.471Z,44.22
2018-08-10T08:43:09.133Z,43.26
2018-08-10T08:45:56.480Z,43.51
2018-08-10T08:48:24.553Z,44.24
2018-08-10T08:50:53.713Z,43.38
2018-08-10T08:53:21.362Z,44.24
2018-08-10T08:55:50.501Z,43.67
2018-08-10T08:58:18.161Z,44.14
2018-08-10T09:00:45.797Z,44.63
2018-08-10T09:03:19.005Z,44.08
2018-08-10T09:05:46.869Z,44.92
2018-08-10T09:08:14.529Z,44.00
2018-08-10T09:10:42.186Z,44.54
2018-08-10T09:13:09.901Z,43.82
2018-08-10T09:15:37.534Z,44.50
2018-08-10T09:18:05.178Z,44.02
2018-08-10T09:20:32.837Z,44.36
2018-08-10T09:23:00.491Z,43.63
2018-08-10T09:25:28.154Z,43.86
2018-08-10T09:27:55.811Z,43.59
2018-08-10T09:30:23.451Z,43.86
2018-08-10T09:32:51.134Z,44.31
2018-08-10T09:35:18.794Z,43.49
2018-08-10T09:37:46.448Z,44.27
2018-08-10T09:40:15.970Z,43.90
2018-08-10T09:42:43.966Z,43.76
2018-08-10T09:45:12.617Z,43.95
2018-08-10T09:47:40.472Z,44.45
2018-08-10T09:50:08.789Z,44.19
2018-08-10T09:52:36.539Z,44.30
2018-08-10T09:55:11.912Z,44.01
2018-08-10T09:57:39.597Z,43.82
2018-08-10T10:00:07.414Z,43.94
2018-08-10T10:02:35.136Z,43.79
2018-08-10T10:05:02.868Z,44.60
2018-08-10T10:07:30.566Z,43.76
2018-08-10T10:09:58.302Z,43.74
2018-08-10T10:12:26.070Z,44.55
2018-08-10T10:14:53.809Z,43.83
2018-08-10T10:17:21.605Z,44.29
2018-08-10T10:19:55.778Z,44.54
2018-08-10T10:22:23.603Z,44.65
2018-08-10T10:24:51.322Z,44.60
2018-08-10T10:27:19.127Z,44.19
2018-08-10T10:29:46.889Z,44.54
2018-08-10T10:32:14.685Z,44.05
2018-08-10T10:34:42.411Z,43.99
2018-08-10T10:37:10.203Z,44.40
2018-08-10T10:39:37.925Z,43.86
2018-08-10T10:42:05.583Z,44.54
2018-08-10T10:44:33.288Z,44.55
2018-08-10T10:47:01.012Z,44.13
2018-08-10T10:49:28.778Z,43.52
2018-08-10T10:51:56.521Z,43.57
2018-08-10T10:54:24.211Z,43.78
2018-08-10T10:56:52.012Z,43.70
2018-08-10T10:59:19.794Z,43.15
2018-08-10T11:01:47.934Z,43.10
2018-08-10T11:04:15.702Z,42.91
2018-08-10T11:06:43.491Z,43.63
2018-08-10T11:09:11.286Z,43.42
2018-08-10T11:11:38.993Z,43.18
2018-08-10T11:14:06.724Z,44.17
2018-08-10T11:16:34.487Z,43.53
2018-08-10T11:19:02.228Z,43.41
2018-08-10T11:21:29.884Z,43.65
2018-08-10T11:23:57.705Z,44.43
2018-08-10T11:26:25.438Z,43.41
2018-08-10T11:28:53.175Z,44.76
2018-08-10T11:31:20.852Z,46.07
2018-08-10T11:33:48.584Z,48.58
2018-08-10T11:36:16.323Z,46.46
2018-08-10T11:38:43.980Z,45.46
2018-08-10T11:41:11.665Z,43.89
2018-08-10T11:43:39.358Z,43.67
2018-08-10T11:46:07.041Z,44.04
2018-08-10T11:48:34.761Z,43.25
2018-08-10T11:51:02.413Z,42.31
2018-08-10T11:53:30.132Z,42.75
2018-08-10T11:55:57.828Z,42.92
2018-08-10T11:58:26.178Z,42.94
2018-08-10T12:00:53.928Z,43.13
2018-08-10T12:03:21.731Z,43.17
2018-08-10T12:05:49.422Z,43.46
2018-08-10T12:08:17.101Z,43.33
2018-08-10T12:10:44.726Z,43.31
2018-08-10T12:13:12.378Z,43.42
2018-08-10T12:15:40.031Z,43.70
2018-08-10T12:18:07.657Z,44.03
2018-08-10T12:20:35.334Z,43.49
2018-08-10T12:23:03.063Z,42.15
2018-08-10T12:25:30.741Z,43.36
2018-08-10T12:27:58.381Z,43.48
2018-08-10T12:30:26.022Z,42.53
2018-08-10T12:32:53.636Z,42.55
2018-08-10T12:35:21.254Z,42.58
2018-08-10T12:37:48.906Z,43.53
2018-08-10T12:40:16.522Z,42.70
2018-08-10T12:42:44.154Z,43.43
2018-08-10T12:45:11.929Z,42.89
2018-08-10T12:47:39.802Z,43.57
2018-08-10T12:50:07.557Z,42.75
2018-08-10T12:52:35.372Z,42.21
2018-08-10T12:55:03.142Z,41.66
2018-08-10T12:57:30.913Z,41.75
2018-08-10T12:59:58.553Z,41.82
2018-08-10T13:02:26.330Z,41.80
2018-08-10T13:04:54.019Z,42.99
2018-08-10T13:07:21.707Z,42.22
2018-08-10T13:09:49.405Z,42.45
2018-08-10T13:12:17.226Z,42.70
2018-08-10T13:14:44.931Z,42.95
2018-08-10T13:17:12.589Z,43.09
2018-08-10T13:19:40.418Z,43.99
2018-08-10T13:22:08.097Z,44.39
2018-08-10T13:24:35.841Z,44.12
2018-08-10T13:27:03.597Z,44.21
2018-08-10T13:29:31.270Z,45.32
2018-08-10T13:31:59.014Z,44.53
2018-08-10T13:34:26.760Z,45.17
2018-08-10T13:36:54.490Z,45.00
2018-08-10T13:39:22.148Z,44.70
2018-08-10T13:41:49.837Z,44.52
2018-08-10T13:44:17.562Z,43.76
2018-08-10T13:46:45.285Z,44.12
2018-08-10T13:49:13.006Z,44.10
2018-08-10T13:51:40.717Z,43.92
2018-08-10T13:54:08.426Z,44.33
2018-08-10T13:56:36.113Z,44.26
2018-08-10T13:59:03.751Z,43.61
2018-08-10T14:01:31.428Z,43.68
2018-08-10T14:03:59.100Z,43.97
2018-08-10T14:06:26.745Z,43.79
2018-08-10T14:08:54.395Z,44.13
2018-08-10T14:11:22.048Z,43.88
2018-08-10T14:13:49.710Z,44.68
2018-08-10T14:16:17.365Z,44.67
2018-08-10T14:18:45.032Z,43.96
2018-08-10T14:21:12.662Z,43.88
2018-08-10T14:23:40.315Z,44.65
2018-08-10T14:26:08.126Z,43.89
2018-08-10T14:28:35.753Z,44.62
2018-08-10T14:31:03.393Z,44.08
2018-08-10T14:33:31.089Z,44.29
2018-08-10T14:35:58.691Z,43.74
2018-08-10T14:38:26.332Z,43.41
2018-08-10T14:40:53.997Z,44.03
2018-08-10T14:43:21.630Z,42.86
2018-08-10T14:45:49.338Z,42.86
2018-08-10T14:48:16.968Z,42.91
2018-08-10T14:50:44.629Z,43.78
2018-08-10T14:53:12.309Z,43.30
2018-08-10T14:55:39.973Z,43.17
2018-08-10T14:58:07.620Z,43.15
2018-08-10T15:00:35.298Z,43.18
2018-08-10T15:03:02.944Z,43.14
2018-08-10T15:05:30.606Z,43.21
2018-08-10T15:07:58.267Z,43.43
2018-08-10T15:10:25.948Z,43.99
2018-08-10T15:12:53.924Z,43.71
2018-08-10T15:15:21.287Z,44.30
2018-08-10T15:17:49.159Z,44.12
2018-08-10T15:20:17.533Z,43.92
2018-08-10T15:22:45.250Z,44.11
2018-08-10T15:25:12.941Z,44.86
2018-08-10T15:27:41.624Z,44.05
2018-08-10T15:30:10.904Z,44.15
2018-08-10T15:32:38.806Z,44.02
2018-08-10T15:35:06.745Z,44.46
2018-08-10T15:37:34.481Z,44.01
2018-08-10T15:40:02.113Z,44.32
2018-08-10T15:42:29.737Z,44.33
2018-08-10T15:44:57.401Z,43.83
2018-08-10T15:47:25.050Z,43.73
2018-08-10T15:49:52.757Z,44.30
2018-08-10T15:52:20.401Z,44.22
2018-08-10T15:54:48.028Z,43.63
2018-08-10T15:57:15.773Z,44.05
2018-08-10T15:59:43.397Z,43.60
2018-08-10T16:02:11.095Z,43.63
2018-08-10T16:04:38.736Z,44.44
2018-08-10T16:07:06.388Z,43.88
2018-08-10T16:09:34.359Z,44.40
2018-08-10T16:12:02.381Z,43.95
2018-08-10T16:14:30.388Z,44.05
2018-08-10T16:16:58.354Z,43.72
2018-08-10T16:19:26.187Z,43.66
2018-08-10T16:21:54.138Z,43.59
2018-08-10T16:24:21.943Z,44.42
2018-08-10T16:26:49.946Z,44.30
2018-08-10T16:29:17.913Z,44.45
2018-08-10T16:31:46.281Z,44.22
2018-08-10T16:34:14.313Z,43.56
2018-08-10T16:36:42.334Z,43.90
2018-08-10T16:39:11.486Z,44.39
2018-08-10T16:41:39.318Z,43.72
2018-08-10T16:44:07.269Z,44.15
2018-08-10T16:46:35.279Z,43.94
2018-08-10T16:49:03.264Z,43.22
2018-08-10T16:51:31.091Z,44.08
2018-08-10T16:53:59.140Z,43.92
2018-08-10T16:56:27.118Z,43.77
2018-08-10T16:58:55.088Z,43.99
2018-08-10T17:01:23.133Z,43.49
2018-08-10T17:03:51.868Z,43.36
2018-08-10T17:06:19.868Z,43.74
2018-08-10T17:08:47.515Z,43.77
2018-08-10T17:11:15.169Z,43.32
2018-08-10T17:13:42.873Z,43.44
2018-08-10T17:16:10.861Z,43.83
2018-08-10T17:18:38.857Z,44.02
2018-08-10T17:21:06.865Z,43.69
2018-08-10T17:23:34.890Z,43.69
2018-08-10T17:26:02.870Z,44.44
2018-08-10T17:28:30.860Z,43.83
2018-08-10T17:30:58.853Z,44.00
2018-08-10T17:33:26.469Z,44.00
2018-08-10T17:35:54.186Z,44.17
2018-08-10T17:38:21.827Z,44.06
2018-08-10T17:40:49.461Z,44.31
2018-08-10T17:43:17.289Z,44.91
2018-08-10T17:45:45.007Z,45.63
2018-08-10T17:48:12.800Z,45.32
2018-08-10T17:50:40.605Z,45.61
2018-08-10T17:53:08.456Z,46.20
2018-08-10T17:55:36.207Z,46.34
2018-08-10T17:58:04.056Z,46.73
2018-08-10T18:00:31.822Z,46.85
2018-08-10T18:02:59.545Z,46.20
2018-08-10T18:05:27.373Z,46.52
2018-08-10T18:07:55.232Z,46.37
2018-08-10T18:10:23.127Z,46.59
2018-08-10T18:12:50.949Z,46.82
2018-08-10T18:15:19.640Z,47.22
2018-08-10T18:17:48.123Z,47.97
2018-08-10T18:20:17.407Z,48.04
2018-08-10T18:22:46.325Z,48.19
2018-08-10T18:25:14.751Z,48.89
2018-08-10T18:27:42.995Z,47.97
2018-08-10T18:30:11.996Z,48.27
2018-08-10T18:32:40.007Z,48.79
2018-08-10T18:35:08.622Z,47.83
2018-08-10T18:37:36.868Z,48.21
2018-08-10T18:40:05.263Z,48.31
2018-08-10T18:42:33.073Z,48.80
2018-08-10T18:45:00.846Z,48.03
2018-08-10T18:47:28.625Z,48.97
2018-08-10T18:49:56.871Z,49.14
2018-08-10T18:52:24.791Z,49.34
2018-08-10T18:54:52.522Z,49.64
2018-08-10T18:57:20.517Z,49.04
2018-08-10T18:59:48.353Z,49.09
2018-08-10T19:02:16.102Z,49.32
2018-08-10T19:04:43.880Z,50.09
2018-08-10T19:07:11.569Z,49.99
2018-08-10T19:09:39.399Z,50.64
2018-08-10T19:12:07.127Z,49.13
2018-08-10T19:14:34.834Z,48.74
2018-08-10T19:17:02.538Z,47.19
2018-08-10T19:19:30.659Z,47.41
2018-08-10T19:21:58.589Z,46.99
2018-08-10T19:24:26.448Z,46.08
2018-08-10T19:26:55.176Z,46.81
2018-08-10T19:29:23.036Z,46.22
2018-08-10T19:31:50.826Z,46.39
2018-08-10T19:34:18.743Z,46.28
2018-08-10T19:36:46.574Z,46.37
2018-08-10T19:39:14.599Z,46.32
2018-08-10T19:41:42.419Z,45.48
2018-08-10T19:44:10.282Z,45.47
2018-08-10T19:46:38.021Z,46.04
2018-08-10T19:49:05.727Z,46.12
2018-08-10T19:51:33.457Z,45.39
2018-08-10T19:54:01.270Z,45.35
2018-08-10T19:56:29.069Z,45.27
2018-08-10T19:58:56.849Z,45.85
2018-08-10T20:01:24.666Z,45.20
2018-08-10T20:03:52.529Z,45.23
2018-08-10T20:06:20.307Z,45.63
2018-08-10T20:08:48.029Z,45.23
2018-08-10T20:11:15.818Z,45.28
2018-08-10T20:13:43.612Z,46.11
2018-08-10T20:16:11.445Z,45.29
2018-08-10T20:18:39.191Z,45.42
2018-08-10T20:21:07.013Z,45.95
2018-08-10T20:23:34.798Z,45.79
2018-08-10T20:26:02.553Z,45.25
2018-08-10T20:28:30.298Z,46.13
2018-08-10T20:30:58.343Z,45.26
2018-08-10T20:33:26.054Z,45.19
2018-08-10T20:35:53.742Z,46.01
2018-08-10T20:38:21.381Z,45.25
2018-08-10T20:40:49.010Z,45.88
2018-08-10T20:43:16.670Z,46.07
2018-08-10T20:45:44.321Z,45.86
2018-08-10T20:48:11.952Z,45.62
2018-08-10T20:50:39.617Z,45.39
2018-08-10T20:53:07.253Z,45.50
2018-08-10T20:55:34.999Z,45.58
2018-08-10T20:58:02.658Z,45.75
2018-08-10T21:00:30.317Z,45.25
2018-08-10T21:02:57.987Z,45.53
2018-08-10T21:05:25.643Z,46.08
2018-08-10T21:07:53.306Z,45.77
2018-08-10T21:10:20.974Z,46.19
2018-08-10T21:12:48.630Z,45.47
2018-08-10T21:15:16.821Z,45.54
2018-08-10T21:17:45.298Z,46.13
2018-08-10T21:20:13.959Z,46.22
2018-08-10T21:22:41.594Z,45.34
2018-08-10T21:25:10.099Z,46.24
2018-08-10T21:27:49.974Z,45.52
2018-08-10T21:30:18.845Z,46.21
2018-08-10T21:32:46.719Z,45.36
2018-08-10T21:37:48.381Z,45.45
2018-08-10T21:40:15.915Z,45.57
2018-08-10T21:42:43.581Z,45.91
2018-08-10T21:45:11.300Z,46.38
2018-08-10T21:47:39.124Z,45.53
2018-08-10T21:50:07.821Z,46.08
2018-08-10T21:52:35.486Z,45.46
2018-08-10T21:55:03.123Z,45.60
2018-08-10T21:57:30.769Z,45.74
2018-08-10T21:59:58.453Z,45.52
2018-08-10T22:02:26.188Z,45.70
2018-08-10T22:04:54.233Z,46.38
2018-08-10T22:07:21.882Z,46.16
2018-08-10T22:09:49.495Z,46.09
2018-08-10T22:12:19.724Z,45.57
2018-08-10T22:14:53.209Z,45.66
2018-08-10T22:17:26.054Z,46.13
2018-08-10T22:19:57.914Z,46.15
2018-08-10T22:22:25.578Z,46.30
2018-08-10T22:24:53.211Z,45.62
2018-08-10T22:27:20.842Z,46.36
2018-08-10T22:29:48.466Z,45.74
2018-08-10T22:32:16.109Z,46.15
2018-08-10T22:34:43.746Z,45.71
2018-08-10T22:37:11.409Z,45.68
2018-08-10T22:39:39.051Z,45.74
2018-08-10T22:42:06.958Z,45.79
2018-08-10T22:44:34.629Z,45.77
2018-08-10T22:47:02.260Z,45.81
2018-08-10T22:49:29.903Z,46.45
2018-08-10T22:51:57.532Z,45.96
2018-08-10T22:54:25.151Z,46.36
2018-08-10T22:56:52.794Z,46.27
2018-08-10T22:59:20.432Z,46.65
2018-08-10T23:01:48.069Z,45.88
2018-08-10T23:04:15.719Z,46.58
2018-08-10T23:06:43.350Z,45.83
2018-08-10T23:09:12.059Z,46.55
2018-08-10T23:11:39.704Z,45.89
2018-08-10T23:14:07.382Z,46.00
2018-08-10T23:16:35.040Z,46.70
2018-08-10T23:19:02.692Z,45.78
2018-08-10T23:21:30.378Z,46.66
2018-08-10T23:23:58.030Z,45.94
2018-08-10T23:26:25.703Z,46.01
2018-08-10T23:28:53.371Z,45.91
2018-08-10T23:31:21.020Z,46.46
2018-08-10T23:33:48.636Z,46.67
2018-08-10T23:36:16.288Z,45.79
2018-08-10T23:38:43.928Z,45.88
2018-08-10T23:41:11.557Z,46.46
2018-08-10T23:43:39.179Z,46.08
2018-08-10T23:46:06.911Z,46.46
2018-08-10T23:48:34.579Z,45.89
2018-08-10T23:51:02.212Z,45.92
2018-08-10T23:53:29.846Z,46.51
2018-08-10T23:55:57.506Z,45.95
2018-08-10T23:58:25.306Z,46.06
